createdAt,value
2018-05-16T00:00:16.750Z,99.90
2018-05-16T00:01:19.284Z,99.90
2018-05-16T00:02:21.847Z,99.90
2018-05-16T00:03:25.142Z,99.90
2018-05-16T00:04:27.690Z,99.90
2018-05-16T00:05:30.975Z,99.90
2018-05-16T00:06:34.267Z,99.90
2018-05-16T00:07:36.832Z,99.90
2018-05-16T00:08:39.367Z,99.90
2018-05-16T00:09:41.892Z,99.90
2018-05-16T00:10:44.472Z,99.90
2018-05-16T00:11:46.999Z,99.90
2018-05-16T00:12:49.530Z,99.90
2018-05-16T00:13:52.055Z,99.90
2018-05-16T00:14:54.589Z,99.90
2018-05-16T00:15:57.911Z,99.90
2018-05-16T00:17:00.436Z,99.90
2018-05-16T00:18:03.782Z,99.90
2018-05-16T00:19:06.311Z,99.90
2018-05-16T00:20:08.835Z,99.90
2018-05-16T00:21:11.392Z,99.90
2018-05-16T00:22:13.916Z,99.90
2018-05-16T00:23:16.444Z,99.90
2018-05-16T00:24:19.719Z,99.90
2018-05-16T00:25:22.237Z,99.90
2018-05-16T00:26:24.808Z,99.90
2018-05-16T00:27:27.345Z,99.90
2018-05-16T00:28:29.868Z,99.90
2018-05-16T00:29:32.389Z,99.90
2018-05-16T00:30:34.911Z,99.90
2018-05-16T00:31:37.474Z,99.90
2018-05-16T00:32:39.996Z,99.90
2018-05-16T00:33:42.524Z,99.90
2018-05-16T00:34:45.860Z,99.90
2018-05-16T00:35:48.397Z,99.90
2018-05-16T00:36:50.923Z,99.90
2018-05-16T00:37:53.453Z,99.90
2018-05-16T00:38:55.983Z,99.90
2018-05-16T00:39:59.332Z,99.90
2018-05-16T00:41:01.880Z,99.90
2018-05-16T00:42:04.412Z,99.90
2018-05-16T00:43:06.927Z,99.90
2018-05-16T00:44:09.450Z,99.90
2018-05-16T00:45:12.016Z,99.90
2018-05-16T00:46:14.527Z,99.90
2018-05-16T00:47:17.049Z,99.90
2018-05-16T00:48:19.580Z,99.90
2018-05-16T00:49:22.105Z,99.90
2018-05-16T00:50:24.660Z,99.90
2018-05-16T00:51:31.618Z,99.90
2018-05-16T00:52:34.134Z,99.90
2018-05-16T00:53:36.684Z,99.90
2018-05-16T00:54:39.203Z,99.90
2018-05-16T00:55:41.752Z,99.90
2018-05-16T00:56:45.067Z,99.90
2018-05-16T00:57:47.641Z,99.90
2018-05-16T00:58:50.174Z,99.90
2018-05-16T00:59:53.467Z,99.90
2018-05-16T01:00:55.996Z,99.90
2018-05-16T01:01:58.516Z,99.90
2018-05-16T01:03:01.082Z,99.90
2018-05-16T01:04:03.601Z,99.90
2018-05-16T01:05:06.121Z,99.90
2018-05-16T01:06:08.659Z,99.90
2018-05-16T01:07:11.981Z,99.90
2018-05-16T01:08:14.539Z,99.90
2018-05-16T01:09:17.857Z,99.90
2018-05-16T01:10:20.381Z,99.90
2018-05-16T01:11:22.913Z,99.90
2018-05-16T01:12:26.200Z,99.90
2018-05-16T01:13:29.516Z,99.90
2018-05-16T01:14:32.066Z,99.90
2018-05-16T01:15:34.639Z,99.90
2018-05-16T01:16:37.175Z,99.90
2018-05-16T01:17:39.707Z,99.90
2018-05-16T01:18:42.246Z,99.90
2018-05-16T01:19:44.780Z,99.90
2018-05-16T01:20:48.120Z,99.90
2018-05-16T01:21:50.655Z,99.90
2018-05-16T01:22:53.220Z,99.90
2018-05-16T01:23:55.747Z,99.90
2018-05-16T01:24:58.275Z,99.90
2018-05-16T01:26:00.808Z,99.90
2018-05-16T01:27:04.101Z,99.90
2018-05-16T01:28:06.668Z,99.90
2018-05-16T01:29:09.201Z,99.90
2018-05-16T01:30:11.743Z,99.90
2018-05-16T01:31:14.307Z,99.90
2018-05-16T01:32:16.829Z,99.90
2018-05-16T01:33:19.360Z,99.90
2018-05-16T01:34:21.927Z,99.90
2018-05-16T01:35:24.452Z,99.90
2018-05-16T01:36:26.975Z,99.90
2018-05-16T01:37:30.271Z,99.90
2018-05-16T01:38:33.608Z,99.90
2018-05-16T01:39:36.163Z,99.90
2018-05-16T01:40:38.677Z,99.90
2018-05-16T01:41:41.973Z,99.90
2018-05-16T01:42:45.308Z,99.90
2018-05-16T01:43:47.841Z,99.90
2018-05-16T01:44:50.365Z,99.90
2018-05-16T01:45:52.887Z,99.90
2018-05-16T01:46:55.427Z,99.90
2018-05-16T01:47:57.996Z,99.90
2018-05-16T01:49:12.366Z,99.90
2018-05-16T01:50:14.938Z,99.90
2018-05-16T01:51:17.496Z,99.90
2018-05-16T01:52:20.056Z,99.90
2018-05-16T01:53:23.355Z,99.90
2018-05-16T01:54:25.907Z,99.90
2018-05-16T01:55:28.432Z,99.90
2018-05-16T01:56:31.733Z,99.90
2018-05-16T01:57:35.024Z,99.90
2018-05-16T01:58:37.552Z,99.90
2018-05-16T01:59:40.124Z,99.90
2018-05-16T02:00:42.654Z,99.90
2018-05-16T02:01:45.175Z,99.90
2018-05-16T02:02:48.468Z,99.90
2018-05-16T02:03:51.013Z,99.90
2018-05-16T02:04:53.580Z,99.90
2018-05-16T02:05:56.877Z,99.90
2018-05-16T02:06:59.400Z,99.90
2018-05-16T02:08:01.933Z,99.90
2018-05-16T02:09:04.470Z,99.90
2018-05-16T02:10:07.037Z,99.90
2018-05-16T02:11:10.366Z,99.90
2018-05-16T02:12:12.917Z,99.90
2018-05-16T02:13:15.447Z,99.90
2018-05-16T02:14:18.731Z,99.90
2018-05-16T02:15:22.056Z,99.90
2018-05-16T02:16:24.580Z,99.90
2018-05-16T02:17:27.882Z,99.90
2018-05-16T02:18:30.416Z,99.90
2018-05-16T02:19:32.989Z,99.90
2018-05-16T02:20:36.289Z,99.90
2018-05-16T02:21:39.592Z,99.90
2018-05-16T02:22:42.127Z,99.90
2018-05-16T02:23:44.666Z,99.90
2018-05-16T02:24:47.231Z,99.90
2018-05-16T02:25:49.757Z,99.90
2018-05-16T02:26:52.285Z,99.90
2018-05-16T02:27:54.847Z,99.90
2018-05-16T02:28:57.367Z,99.90
2018-05-16T02:29:59.910Z,99.90
2018-05-16T02:31:03.204Z,99.90
2018-05-16T02:32:05.766Z,99.90
2018-05-16T02:33:08.289Z,99.90
2018-05-16T02:34:10.820Z,99.90
2018-05-16T02:35:13.352Z,99.90
2018-05-16T02:36:16.651Z,99.90
2018-05-16T02:37:19.277Z,99.90
2018-05-16T02:38:21.770Z,99.90
2018-05-16T02:39:25.065Z,99.90
2018-05-16T02:40:27.595Z,99.90
2018-05-16T02:41:30.119Z,99.90
2018-05-16T02:42:32.699Z,99.90
2018-05-16T02:43:35.260Z,99.90
2018-05-16T02:44:37.771Z,99.90
2018-05-16T02:45:40.303Z,99.90
2018-05-16T02:46:42.832Z,99.90
2018-05-16T02:47:45.392Z,99.90
2018-05-16T02:48:47.928Z,99.90
2018-05-16T02:49:50.461Z,99.90
2018-05-16T02:50:52.994Z,99.90
2018-05-16T02:51:55.524Z,99.90
2018-05-16T02:52:58.100Z,99.90
2018-05-16T02:54:00.640Z,99.90
2018-05-16T02:55:03.169Z,99.90
2018-05-16T02:56:05.700Z,99.90
2018-05-16T02:57:08.997Z,99.90
2018-05-16T02:58:12.326Z,99.90
2018-05-16T02:59:14.892Z,99.90
2018-05-16T03:00:17.425Z,99.90
2018-05-16T03:01:19.959Z,99.90
2018-05-16T03:02:22.520Z,99.90
2018-05-16T03:03:25.048Z,99.90
2018-05-16T03:04:27.579Z,99.90
2018-05-16T03:05:30.904Z,99.90
2018-05-16T03:06:33.431Z,99.90
2018-05-16T03:07:36.717Z,99.90
2018-05-16T03:08:40.014Z,99.90
2018-05-16T03:09:42.591Z,99.90
2018-05-16T03:10:45.136Z,99.90
2018-05-16T03:11:47.670Z,99.90
2018-05-16T03:12:50.197Z,99.90
2018-05-16T03:13:52.731Z,99.90
2018-05-16T03:14:56.057Z,99.90
2018-05-16T03:15:58.628Z,99.90
2018-05-16T03:17:01.154Z,99.90
2018-05-16T03:18:04.453Z,99.90
2018-05-16T03:19:06.981Z,99.90
2018-05-16T03:20:09.515Z,99.90
2018-05-16T03:21:12.101Z,99.90
2018-05-16T03:22:14.637Z,99.90
2018-05-16T03:23:17.171Z,99.90
2018-05-16T03:24:19.703Z,99.90
2018-05-16T03:25:22.220Z,99.90
2018-05-16T03:26:24.818Z,99.90
2018-05-16T03:27:27.345Z,99.90
2018-05-16T03:28:29.909Z,99.90
2018-05-16T03:29:32.431Z,99.90
2018-05-16T03:30:34.960Z,99.90
2018-05-16T03:31:37.491Z,99.90
2018-05-16T03:32:40.783Z,99.90
2018-05-16T03:33:44.109Z,99.90
2018-05-16T03:34:46.637Z,99.90
2018-05-16T03:35:49.167Z,99.90
2018-05-16T03:36:51.723Z,99.90
2018-05-16T03:37:55.753Z,99.90
2018-05-16T03:38:59.094Z,99.90
2018-05-16T03:40:01.621Z,99.90
2018-05-16T03:41:04.151Z,99.90
2018-05-16T03:42:06.672Z,99.90
2018-05-16T03:43:09.204Z,99.90
2018-05-16T03:44:12.540Z,99.90
2018-05-16T03:45:15.069Z,99.90
2018-05-16T03:46:17.619Z,99.90
2018-05-16T03:47:20.912Z,99.90
2018-05-16T03:48:24.208Z,99.90
2018-05-16T03:49:26.776Z,99.90
2018-05-16T03:50:29.294Z,99.90
2018-05-16T03:51:31.825Z,99.90
2018-05-16T03:52:34.356Z,99.90
2018-05-16T03:53:37.645Z,99.90
2018-05-16T03:54:40.978Z,99.90
2018-05-16T03:55:43.506Z,99.90
2018-05-16T03:56:46.040Z,99.90
2018-05-16T03:59:43.958Z,99.90
2018-05-16T04:00:58.155Z,99.90
2018-05-16T04:02:12.689Z,99.90
2018-05-16T04:03:26.729Z,99.90
2018-05-16T04:04:29.255Z,99.90
2018-05-16T04:05:31.824Z,99.90
2018-05-16T04:06:34.352Z,99.90
2018-05-16T04:07:37.636Z,99.90
2018-05-16T04:08:40.919Z,99.90
2018-05-16T04:09:44.206Z,99.90
2018-05-16T04:10:47.557Z,99.90
2018-05-16T04:11:50.087Z,99.90
2018-05-16T04:12:52.621Z,99.90
2018-05-16T04:13:55.161Z,99.90
2018-05-16T04:14:57.816Z,99.90
2018-05-16T04:16:00.392Z,99.90
2018-05-16T04:17:02.951Z,99.90
2018-05-16T04:18:05.480Z,99.90
2018-05-16T04:19:08.003Z,99.90
2018-05-16T04:20:10.532Z,99.90
2018-05-16T04:21:13.113Z,99.90
2018-05-16T04:22:15.639Z,99.90
2018-05-16T04:23:18.184Z,99.90
2018-05-16T04:24:21.478Z,99.90
2018-05-16T04:25:24.003Z,99.90
2018-05-16T04:26:26.568Z,99.90
2018-05-16T04:27:29.108Z,99.90
2018-05-16T04:28:31.632Z,99.90
2018-05-16T04:29:34.919Z,99.90
2018-05-16T04:30:38.214Z,99.90
2018-05-16T04:31:40.777Z,99.90
2018-05-16T04:32:43.389Z,99.90
2018-05-16T04:33:46.619Z,99.90
2018-05-16T04:34:49.918Z,99.90
2018-05-16T04:35:52.447Z,99.90
2018-05-16T04:36:55.011Z,99.90
2018-05-16T04:37:57.534Z,99.90
2018-05-16T04:39:00.096Z,99.90
2018-05-16T04:40:02.627Z,99.90
2018-05-16T04:41:05.916Z,99.90
2018-05-16T04:42:08.456Z,99.90
2018-05-16T04:43:10.988Z,99.90
2018-05-16T04:44:13.543Z,99.90
2018-05-16T04:45:16.077Z,99.90
2018-05-16T04:46:19.371Z,99.90
2018-05-16T04:47:21.903Z,99.90
2018-05-16T04:48:24.437Z,99.90
2018-05-16T04:49:27.011Z,99.90
2018-05-16T04:50:29.536Z,99.90
2018-05-16T04:51:32.082Z,99.90
2018-05-16T04:52:35.416Z,99.90
2018-05-16T04:53:37.935Z,99.90
2018-05-16T04:54:40.456Z,99.90
2018-05-16T04:55:42.991Z,99.90
2018-05-16T04:56:45.533Z,99.90
2018-05-16T04:57:48.868Z,99.90
2018-05-16T04:58:51.398Z,99.90
2018-05-16T04:59:53.932Z,99.90
2018-05-16T05:00:56.497Z,99.90
2018-05-16T05:01:59.044Z,99.90
2018-05-16T05:03:01.615Z,99.90
2018-05-16T05:04:04.188Z,99.90
2018-05-16T05:05:06.742Z,99.90
2018-05-16T05:06:09.300Z,99.90
2018-05-16T05:07:11.843Z,99.90
2018-05-16T05:08:14.400Z,99.90
2018-05-16T05:09:16.965Z,99.90
2018-05-16T05:10:19.519Z,99.90
2018-05-16T05:11:22.815Z,99.90
2018-05-16T05:12:25.347Z,99.90
2018-05-16T05:13:27.863Z,99.90
2018-05-16T05:14:30.424Z,99.90
2018-05-16T05:15:32.944Z,99.90
2018-05-16T05:16:35.495Z,99.90
2018-05-16T05:17:38.033Z,99.90
2018-05-16T05:18:40.612Z,99.90
2018-05-16T05:19:43.135Z,99.90
2018-05-16T05:20:46.432Z,99.90
2018-05-16T05:21:49.003Z,99.90
2018-05-16T05:22:51.567Z,99.90
2018-05-16T05:23:54.153Z,99.90
2018-05-16T05:24:57.420Z,99.90
2018-05-16T05:25:59.959Z,99.90
2018-05-16T05:27:03.270Z,99.90
2018-05-16T05:28:05.833Z,99.90
2018-05-16T05:29:08.403Z,99.90
2018-05-16T05:30:10.946Z,99.90
2018-05-16T05:31:14.245Z,99.90
2018-05-16T05:32:17.539Z,99.90
2018-05-16T05:33:20.068Z,99.90
2018-05-16T05:34:22.634Z,99.90
2018-05-16T05:35:25.163Z,99.90
2018-05-16T05:36:27.696Z,99.90
2018-05-16T05:37:30.230Z,99.90
2018-05-16T05:38:32.792Z,99.90
2018-05-16T05:39:35.311Z,99.90
2018-05-16T05:40:37.877Z,99.90
2018-05-16T05:41:40.400Z,99.90
2018-05-16T05:42:42.942Z,99.90
2018-05-16T05:43:45.505Z,99.90
2018-05-16T05:44:48.039Z,99.90
2018-05-16T05:45:50.564Z,99.90
2018-05-16T05:46:53.126Z,99.90
2018-05-16T05:47:55.659Z,99.90
2018-05-16T05:48:58.233Z,99.90
2018-05-16T05:50:00.756Z,99.90
2018-05-16T05:51:04.165Z,99.90
2018-05-16T05:52:06.729Z,99.90
2018-05-16T05:53:09.265Z,99.90
2018-05-16T05:54:12.559Z,99.90
2018-05-16T05:55:15.092Z,99.90
2018-05-16T05:56:17.651Z,99.90
2018-05-16T05:57:20.184Z,99.90
2018-05-16T05:58:22.708Z,99.90
2018-05-16T05:59:26.014Z,99.90
2018-05-16T06:00:28.549Z,99.90
2018-05-16T06:01:31.892Z,99.90
2018-05-16T06:02:34.416Z,99.90
2018-05-16T06:03:37.719Z,99.90
2018-05-16T06:04:40.239Z,99.90
2018-05-16T06:05:42.758Z,99.90
2018-05-16T06:06:45.335Z,99.90
2018-05-16T06:07:47.864Z,99.90
2018-05-16T06:08:51.157Z,99.90
2018-05-16T06:09:54.454Z,99.90
2018-05-16T06:10:56.984Z,99.90
2018-05-16T06:11:59.566Z,99.90
2018-05-16T06:13:02.865Z,99.90
2018-05-16T06:14:05.397Z,99.90
2018-05-16T06:15:07.928Z,99.90
2018-05-16T06:16:10.459Z,99.90
2018-05-16T06:17:13.029Z,99.90
2018-05-16T06:18:15.560Z,99.90
2018-05-16T06:19:18.092Z,99.90
2018-05-16T06:20:20.617Z,99.90
2018-05-16T06:21:23.918Z,99.90
2018-05-16T06:22:26.503Z,99.90
2018-05-16T06:23:29.115Z,99.90
2018-05-16T06:24:31.639Z,99.90
2018-05-16T06:25:34.176Z,99.90
2018-05-16T06:26:36.712Z,99.90
2018-05-16T06:27:39.237Z,99.90
2018-05-16T06:28:41.804Z,99.90
2018-05-16T06:29:44.343Z,99.90
2018-05-16T06:30:46.876Z,99.90
2018-05-16T06:31:49.443Z,99.90
2018-05-16T06:32:52.057Z,99.90
2018-05-16T06:33:54.517Z,99.90
2018-05-16T06:34:57.054Z,99.90
2018-05-16T06:36:00.339Z,99.90
2018-05-16T06:37:02.907Z,99.90
2018-05-16T06:38:06.198Z,99.90
2018-05-16T06:39:09.572Z,99.90
2018-05-16T06:40:12.079Z,99.90
2018-05-16T06:41:14.644Z,99.90
2018-05-16T06:42:17.168Z,99.90
2018-05-16T06:43:20.463Z,99.90
2018-05-16T06:44:23.034Z,99.90
2018-05-16T06:45:25.572Z,99.90
2018-05-16T06:46:28.113Z,99.90
2018-05-16T06:47:30.639Z,99.90
2018-05-16T06:48:33.181Z,99.90
2018-05-16T06:49:36.509Z,99.90
2018-05-16T06:50:39.044Z,99.90
2018-05-16T06:51:42.471Z,99.90
2018-05-16T06:52:45.005Z,99.90
2018-05-16T06:53:47.540Z,99.90
2018-05-16T06:54:50.106Z,99.90
2018-05-16T06:55:52.635Z,99.90
2018-05-16T06:56:55.168Z,99.90
2018-05-16T06:57:57.728Z,99.90
2018-05-16T06:59:01.024Z,99.90
2018-05-16T07:00:03.549Z,99.90
2018-05-16T07:01:06.073Z,99.90
2018-05-16T07:02:08.600Z,99.90
2018-05-16T07:03:11.925Z,99.90
2018-05-16T07:04:14.455Z,99.90
2018-05-16T07:05:17.744Z,99.90
2018-05-16T07:06:21.048Z,99.90
2018-05-16T07:07:23.581Z,99.90
2018-05-16T07:08:26.910Z,99.90
2018-05-16T07:09:29.487Z,99.90
2018-05-16T07:10:32.017Z,99.90
2018-05-16T07:11:35.312Z,99.90
2018-05-16T07:12:37.839Z,99.90
2018-05-16T07:13:40.369Z,99.90
2018-05-16T07:14:42.920Z,99.90
2018-05-16T07:15:45.446Z,99.90
2018-05-16T07:16:47.968Z,99.90
2018-05-16T07:17:50.502Z,99.90
2018-05-16T07:18:53.031Z,99.90
2018-05-16T07:19:55.604Z,99.90
2018-05-16T07:20:58.136Z,99.90
2018-05-16T07:22:00.660Z,99.90
2018-05-16T07:23:03.952Z,99.90
2018-05-16T07:24:06.515Z,99.90
2018-05-16T07:25:09.839Z,99.90
2018-05-16T07:26:12.360Z,99.90
2018-05-16T07:27:15.671Z,99.90
2018-05-16T07:28:18.195Z,99.90
2018-05-16T07:29:20.726Z,99.90
2018-05-16T07:30:23.287Z,99.90
2018-05-16T07:31:25.818Z,99.90
2018-05-16T07:32:28.385Z,99.90
2018-05-16T07:33:30.953Z,99.90
2018-05-16T07:34:33.489Z,99.90
2018-05-16T07:35:36.835Z,99.90
2018-05-16T07:36:39.377Z,99.90
2018-05-16T07:37:41.905Z,99.90
2018-05-16T07:38:44.435Z,99.90
2018-05-16T07:39:46.973Z,99.90
2018-05-16T07:40:49.532Z,99.90
2018-05-16T07:41:52.083Z,99.90
2018-05-16T07:42:55.415Z,99.90
2018-05-16T07:43:57.944Z,99.90
2018-05-16T07:45:00.513Z,99.90
2018-05-16T07:46:03.035Z,99.90
2018-05-16T07:47:05.579Z,99.90
2018-05-16T07:48:08.137Z,99.90
2018-05-16T07:49:10.672Z,99.90
2018-05-16T07:50:13.981Z,99.90
2018-05-16T07:51:16.613Z,99.90
2018-05-16T07:52:19.104Z,99.90
2018-05-16T07:53:21.671Z,99.90
2018-05-16T07:54:24.217Z,99.90
2018-05-16T07:55:27.525Z,99.90
2018-05-16T07:56:30.062Z,99.90
2018-05-16T07:57:33.356Z,99.90
2018-05-16T07:58:36.683Z,99.90
2018-05-16T07:59:39.206Z,99.90
2018-05-16T08:00:42.544Z,99.90
2018-05-16T08:01:45.072Z,99.90
2018-05-16T08:02:47.637Z,99.90
2018-05-16T08:03:50.189Z,99.90
2018-05-16T08:06:01.620Z,99.90
2018-05-16T08:07:04.165Z,99.90
2018-05-16T08:08:06.700Z,99.90
2018-05-16T08:09:10.030Z,99.90
2018-05-16T08:10:12.560Z,99.90
2018-05-16T08:11:15.149Z,99.90
2018-05-16T08:12:17.711Z,99.90
2018-05-16T08:13:20.229Z,99.90
2018-05-16T08:14:22.785Z,99.90
2018-05-16T08:15:25.327Z,99.90
2018-05-16T08:16:27.856Z,99.90
2018-05-16T08:17:31.144Z,99.90
2018-05-16T08:18:33.685Z,99.90
2018-05-16T08:19:36.311Z,99.90
2018-05-16T08:20:38.849Z,99.90
2018-05-16T08:21:41.467Z,99.90
2018-05-16T08:22:43.991Z,99.90
2018-05-16T08:23:46.525Z,99.90
2018-05-16T08:24:49.809Z,99.90
2018-05-16T08:25:53.196Z,99.90
2018-05-16T08:26:56.525Z,99.90
2018-05-16T08:27:59.048Z,99.90
2018-05-16T08:29:02.957Z,99.90
2018-05-16T08:30:06.248Z,99.90
2018-05-16T08:31:08.897Z,99.90
2018-05-16T08:32:12.239Z,99.90
2018-05-16T08:33:14.765Z,99.90
2018-05-16T08:34:18.074Z,99.90
2018-05-16T08:35:20.595Z,99.90
2018-05-16T08:36:23.910Z,99.90
2018-05-16T08:37:26.475Z,99.90
2018-05-16T08:38:28.996Z,99.90
2018-05-16T08:39:31.572Z,99.90
2018-05-16T08:40:34.103Z,99.90
2018-05-16T08:41:36.635Z,99.90
2018-05-16T08:42:39.179Z,99.90
2018-05-16T08:43:42.463Z,99.90
2018-05-16T08:44:45.795Z,99.80
2018-05-16T08:45:48.321Z,99.70
2018-05-16T08:46:51.612Z,97.50
2018-05-16T08:47:54.916Z,98.00
2018-05-16T08:48:57.448Z,98.00
2018-05-16T08:50:00.776Z,97.90
2018-05-16T08:51:03.340Z,97.90
2018-05-16T08:52:05.900Z,98.40
2018-05-16T08:53:08.426Z,98.10
2018-05-16T08:54:11.725Z,98.00
2018-05-16T08:55:15.055Z,99.20
2018-05-16T08:56:17.580Z,99.20
2018-05-16T08:57:20.885Z,97.90
2018-05-16T08:58:23.420Z,98.00
2018-05-16T08:59:26.722Z,97.80
2018-05-16T09:00:29.291Z,97.80
2018-05-16T09:01:31.840Z,97.00
2018-05-16T09:02:35.133Z,97.40
2018-05-16T09:03:38.431Z,97.10
2018-05-16T09:04:40.992Z,97.10
2018-05-16T09:05:43.516Z,97.80
2018-05-16T09:06:46.050Z,97.20
2018-05-16T09:07:48.628Z,97.70
2018-05-16T09:08:51.156Z,98.10
2018-05-16T09:09:53.694Z,98.10
2018-05-16T09:10:56.223Z,97.80
2018-05-16T09:11:58.768Z,98.30
2018-05-16T09:13:01.331Z,98.40
2018-05-16T09:14:03.855Z,98.40
2018-05-16T09:15:06.377Z,98.40
2018-05-16T09:16:08.911Z,98.30
2018-05-16T09:17:12.267Z,98.60
2018-05-16T09:18:14.804Z,98.60
2018-05-16T09:19:17.395Z,98.50
2018-05-16T09:20:19.875Z,98.70
2018-05-16T09:21:23.223Z,98.40
2018-05-16T09:22:25.756Z,98.40
2018-05-16T09:23:28.287Z,99.10
2018-05-16T09:24:30.825Z,99.20
2018-05-16T09:25:33.356Z,98.30
2018-05-16T09:26:35.913Z,98.10
2018-05-16T09:27:38.442Z,97.70
2018-05-16T09:28:40.981Z,97.10
2018-05-16T09:29:43.507Z,96.80
2018-05-16T09:30:46.075Z,95.90
2018-05-16T09:31:48.651Z,95.70
2018-05-16T09:32:51.195Z,96.10
2018-05-16T09:33:54.497Z,94.90
2018-05-16T09:34:57.029Z,94.90
2018-05-16T09:35:59.557Z,94.90
2018-05-16T09:37:02.118Z,94.90
2018-05-16T09:38:04.649Z,95.10
2018-05-16T09:39:07.948Z,95.90
2018-05-16T09:40:10.494Z,95.90
2018-05-16T09:41:13.793Z,95.00
2018-05-16T09:42:16.358Z,95.00
2018-05-16T09:43:18.926Z,95.60
2018-05-16T09:44:21.476Z,96.10
2018-05-16T09:45:24.772Z,96.30
2018-05-16T09:46:28.070Z,95.80
2018-05-16T09:47:30.603Z,95.80
2018-05-16T09:48:33.932Z,96.20
2018-05-16T09:49:36.467Z,95.90
2018-05-16T09:50:39.774Z,95.50
2018-05-16T09:51:42.319Z,95.50
2018-05-16T09:52:45.625Z,96.30
2018-05-16T09:53:48.203Z,96.40
2018-05-16T09:54:50.732Z,96.20
2018-05-16T09:55:54.036Z,96.30
2018-05-16T09:56:56.569Z,96.00
2018-05-16T09:57:59.096Z,96.30
2018-05-16T09:59:01.659Z,96.40
2018-05-16T10:00:04.190Z,96.50
2018-05-16T10:01:07.499Z,96.80
2018-05-16T10:02:10.026Z,96.80
2018-05-16T10:03:13.320Z,96.50
2018-05-16T10:04:15.876Z,96.50
2018-05-16T10:05:18.467Z,96.70
2018-05-16T10:06:20.996Z,97.00
2018-05-16T10:07:23.525Z,97.10
2018-05-16T10:08:26.064Z,97.20
2018-05-16T10:09:28.625Z,97.60
2018-05-16T10:10:31.175Z,97.60
2018-05-16T10:11:34.473Z,97.90
2018-05-16T10:12:37.784Z,97.90
2018-05-16T10:13:40.314Z,97.90
2018-05-16T10:14:43.656Z,98.00
2018-05-16T10:15:46.176Z,97.90
2018-05-16T10:16:48.724Z,98.30
2018-05-16T10:17:52.039Z,98.80
2018-05-16T10:18:54.581Z,98.70
2018-05-16T10:19:57.925Z,99.10
2018-05-16T10:21:00.463Z,99.00
2018-05-16T10:22:02.989Z,99.00
2018-05-16T10:23:06.280Z,98.40
2018-05-16T10:24:09.585Z,98.70
2018-05-16T10:25:12.151Z,98.70
2018-05-16T10:26:14.747Z,98.70
2018-05-16T10:27:18.000Z,98.00
2018-05-16T10:28:20.539Z,97.90
2018-05-16T10:29:23.076Z,97.90
2018-05-16T10:30:25.644Z,97.70
2018-05-16T10:31:28.177Z,97.70
2018-05-16T10:32:30.708Z,98.00
2018-05-16T10:33:34.013Z,98.40
2018-05-16T10:34:36.640Z,98.00
2018-05-16T10:35:39.127Z,98.00
2018-05-16T10:36:42.453Z,98.30
2018-05-16T10:37:44.987Z,98.20
2018-05-16T10:38:48.267Z,98.50
2018-05-16T10:39:51.559Z,98.50
2018-05-16T10:40:54.858Z,98.90
2018-05-16T10:41:57.417Z,98.90
2018-05-16T10:42:59.949Z,98.70
2018-05-16T10:44:02.481Z,98.30
2018-05-16T10:45:05.010Z,98.30
2018-05-16T10:46:07.538Z,98.90
2018-05-16T10:47:10.104Z,98.40
2018-05-16T10:48:12.643Z,98.30
2018-05-16T10:49:15.202Z,98.40
2018-05-16T10:50:17.737Z,98.60
2018-05-16T10:51:21.023Z,99.00
2018-05-16T10:52:23.547Z,99.00
2018-05-16T10:53:26.075Z,98.80
2018-05-16T10:54:28.656Z,98.90
2018-05-16T10:55:31.181Z,98.30
2018-05-16T10:56:34.476Z,98.50
2018-05-16T10:57:37.007Z,98.50
2018-05-16T10:58:39.540Z,98.40
2018-05-16T10:59:42.103Z,98.50
2018-05-16T11:00:44.664Z,98.20
2018-05-16T11:01:47.191Z,97.70
2018-05-16T11:02:50.485Z,98.00
2018-05-16T11:03:53.032Z,97.90
2018-05-16T11:04:55.593Z,97.00
2018-05-16T11:05:58.124Z,98.10
2018-05-16T11:07:00.682Z,97.90
2018-05-16T11:08:03.215Z,97.50
2018-05-16T11:09:06.505Z,97.30
2018-05-16T11:10:09.836Z,97.60
2018-05-16T11:11:12.358Z,97.60
2018-05-16T11:12:14.879Z,97.40
2018-05-16T11:13:17.413Z,97.50
2018-05-16T11:14:19.952Z,97.30
2018-05-16T11:15:23.282Z,97.40
2018-05-16T11:16:25.808Z,97.40
2018-05-16T11:17:28.340Z,97.10
2018-05-16T11:18:30.888Z,97.00
2018-05-16T11:19:33.412Z,97.00
2018-05-16T11:20:36.051Z,97.60
2018-05-16T11:21:38.656Z,98.00
2018-05-16T11:22:41.222Z,97.90
2018-05-16T11:23:43.757Z,97.80
2018-05-16T11:24:47.088Z,98.10
2018-05-16T11:25:49.630Z,98.10
2018-05-16T11:26:52.157Z,98.30
2018-05-16T11:27:54.684Z,98.70
2018-05-16T11:28:57.224Z,98.50
2018-05-16T11:29:59.784Z,98.30
2018-05-16T11:31:03.105Z,97.40
2018-05-16T11:32:05.627Z,97.40
2018-05-16T11:33:08.920Z,97.10
2018-05-16T11:34:11.491Z,97.10
2018-05-16T11:35:14.056Z,96.90
2018-05-16T11:36:16.592Z,97.10
2018-05-16T11:37:19.137Z,96.80
2018-05-16T11:38:21.671Z,96.80
2018-05-16T11:39:24.200Z,96.90
2018-05-16T11:40:27.540Z,96.80
2018-05-16T11:41:30.065Z,96.80
2018-05-16T11:42:33.359Z,96.90
2018-05-16T11:43:35.914Z,96.90
2018-05-16T11:44:39.211Z,97.00
2018-05-16T11:45:41.768Z,97.00
2018-05-16T11:46:44.296Z,97.30
2018-05-16T11:47:46.822Z,97.40
2018-05-16T11:48:49.391Z,97.30
2018-05-16T11:49:51.952Z,97.00
2018-05-16T11:50:54.489Z,97.30
2018-05-16T11:51:57.837Z,97.00
2018-05-16T11:53:00.382Z,97.00
2018-05-16T11:54:03.145Z,97.50
2018-05-16T11:55:06.965Z,97.80
2018-05-16T11:56:10.258Z,98.00
2018-05-16T11:57:12.891Z,98.00
2018-05-16T11:58:15.419Z,97.40
2018-05-16T11:59:17.976Z,97.00
2018-05-16T12:00:20.511Z,96.80
2018-05-16T12:01:23.043Z,96.60
2018-05-16T12:02:25.695Z,96.10
2018-05-16T12:03:28.992Z,96.40
2018-05-16T12:04:31.524Z,96.40
2018-05-16T12:05:34.065Z,96.60
2018-05-16T12:06:36.592Z,96.40
2018-05-16T12:07:39.150Z,96.80
2018-05-16T12:08:42.454Z,96.80
2018-05-16T12:09:45.016Z,96.80
2018-05-16T12:10:47.541Z,96.90
2018-05-16T12:11:50.073Z,97.00
2018-05-16T12:12:52.607Z,97.20
2018-05-16T12:13:55.137Z,96.90
2018-05-16T12:14:57.747Z,96.70
2018-05-16T12:16:01.050Z,96.70
2018-05-16T12:17:03.588Z,96.60
2018-05-16T12:18:06.115Z,96.70
2018-05-16T12:19:08.640Z,96.50
2018-05-16T12:20:11.221Z,96.40
2018-05-16T12:21:13.752Z,96.70
2018-05-16T12:22:16.289Z,96.50
2018-05-16T12:23:18.815Z,96.80
2018-05-16T12:24:21.336Z,96.70
2018-05-16T12:25:24.672Z,96.90
2018-05-16T12:26:27.205Z,96.90
2018-05-16T12:27:29.736Z,97.10
2018-05-16T12:28:32.268Z,97.40
2018-05-16T12:29:34.801Z,97.40
2018-05-16T12:30:37.366Z,97.00
2018-05-16T12:31:39.943Z,96.90
2018-05-16T12:32:42.953Z,96.70
2018-05-16T12:33:45.485Z,96.50
2018-05-16T12:34:48.011Z,96.60
2018-05-16T12:35:50.577Z,96.80
2018-05-16T12:36:53.107Z,96.60
2018-05-16T12:37:55.683Z,97.00
2018-05-16T12:38:58.209Z,97.10
2018-05-16T12:40:00.740Z,97.40
2018-05-16T12:41:03.279Z,97.10
2018-05-16T12:42:05.805Z,97.40
2018-05-16T12:43:17.146Z,97.60
2018-05-16T12:44:19.666Z,98.00
2018-05-16T12:45:22.184Z,97.40
2018-05-16T12:46:24.712Z,97.30
2018-05-16T12:47:27.228Z,97.00
2018-05-16T12:48:30.563Z,97.00
2018-05-16T12:49:33.101Z,97.00
2018-05-16T12:50:35.621Z,96.80
2018-05-16T12:51:38.145Z,96.70
2018-05-16T12:52:40.669Z,96.50
2018-05-16T12:53:44.001Z,96.80
2018-05-16T12:54:46.530Z,96.70
2018-05-16T12:55:49.936Z,96.80
2018-05-16T12:56:52.393Z,96.80
2018-05-16T12:57:54.916Z,96.90
2018-05-16T12:58:57.484Z,96.50
2018-05-16T13:00:00.110Z,96.30
2018-05-16T13:01:02.631Z,96.30
2018-05-16T13:02:05.165Z,96.20
2018-05-16T13:03:07.736Z,96.20
2018-05-16T13:04:10.303Z,96.60
2018-05-16T13:05:12.824Z,96.40
2018-05-16T13:06:15.345Z,96.60
2018-05-16T13:07:17.870Z,96.40
2018-05-16T13:08:20.399Z,96.50
2018-05-16T13:09:23.821Z,95.80
2018-05-16T13:10:26.343Z,95.50
2018-05-16T13:11:28.907Z,95.70
2018-05-16T13:12:31.403Z,95.80
2018-05-16T13:13:33.923Z,95.70
2018-05-16T13:14:36.492Z,95.10
2018-05-16T13:15:39.017Z,94.80
2018-05-16T13:16:41.545Z,94.80
2018-05-16T13:17:44.091Z,94.50
2018-05-16T13:18:46.608Z,94.60
2018-05-16T13:19:49.185Z,94.80
2018-05-16T13:20:51.708Z,94.70
2018-05-16T13:21:55.011Z,95.20
2018-05-16T13:22:58.308Z,94.60
2018-05-16T13:24:00.840Z,94.60
2018-05-16T13:25:03.420Z,94.60
2018-05-16T13:26:06.719Z,95.10
2018-05-16T13:27:09.245Z,95.10
2018-05-16T13:28:11.782Z,95.00
2018-05-16T13:29:14.307Z,95.60
2018-05-16T13:30:17.625Z,95.70
2018-05-16T13:31:20.209Z,95.70